sensor_id;sensor_type;location;lat;lon;timestamp;P1;durP1;ratioP1;P2;durP2;ratioP2
74217;SDS011;62579;47.288;18.646;2022-08-03T00:00:50;4.80;;;1.90;;
74217;SDS011;62579;47.288;18.646;2022-08-03T00:03:16;1.57;;;1.47;;
74217;SDS011;62579;47.288;18.646;2022-08-03T00:05:41;1.43;;;1.30;;
74217;SDS011;62579;47.288;18.646;2022-08-03T00:08:06;1.83;;;1.60;;
74217;SDS011;62579;47.288;18.646;2022-08-03T00:10:32;1.60;;;1.50;;
74217;SDS011;62579;47.288;18.646;2022-08-03T00:12:57;2.40;;;1.30;;
74217;SDS011;62579;47.288;18.646;2022-08-03T00:15:22;1.53;;;1.40;;
74217;SDS011;62579;47.288;18.646;2022-08-03T00:17:48;4.53;;;1.53;;
74217;SDS011;62579;47.288;18.646;2022-08-03T00:20:13;2.10;;;1.67;;
74217;SDS011;62579;47.288;18.646;2022-08-03T00:22:38;1.93;;;1.67;;
74217;SDS011;62579;47.288;18.646;2022-08-03T00:25:04;2.20;;;1.80;;
74217;SDS011;62579;47.288;18.646;2022-08-03T00:27:30;2.00;;;1.50;;
74217;SDS011;62579;47.288;18.646;2022-08-03T00:29:55;3.90;;;1.70;;
74217;SDS011;62579;47.288;18.646;2022-08-03T00:32:20;1.40;;;1.40;;
74217;SDS011;62579;47.288;18.646;2022-08-03T00:34:46;2.00;;;1.80;;
74217;SDS011;62579;47.288;18.646;2022-08-03T00:37:11;2.40;;;1.83;;
74217;SDS011;62579;47.288;18.646;2022-08-03T00:39:36;2.10;;;1.90;;
74217;SDS011;62579;47.288;18.646;2022-08-03T00:42:03;2.40;;;1.90;;
74217;SDS011;62579;47.288;18.646;2022-08-03T00:44:29;5.95;;;2.30;;
74217;SDS011;62579;47.288;18.646;2022-08-03T00:46:54;1.93;;;1.83;;
74217;SDS011;62579;47.288;18.646;2022-08-03T00:49:20;2.27;;;1.70;;
74217;SDS011;62579;47.288;18.646;2022-08-03T00:51:45;2.10;;;1.90;;
74217;SDS011;62579;47.288;18.646;2022-08-03T00:54:11;3.07;;;1.90;;
74217;SDS011;62579;47.288;18.646;2022-08-03T00:56:36;4.73;;;1.80;;
74217;SDS011;62579;47.288;18.646;2022-08-03T00:59:02;3.20;;;2.10;;
74217;SDS011;62579;47.288;18.646;2022-08-03T01:01:28;1.90;;;1.80;;
74217;SDS011;62579;47.288;18.646;2022-08-03T01:03:53;2.90;;;2.00;;
74217;SDS011;62579;47.288;18.646;2022-08-03T01:06:19;2.00;;;1.90;;
74217;SDS011;62579;47.288;18.646;2022-08-03T01:09:08;2.42;;;1.70;;
74217;SDS011;62579;47.288;18.646;2022-08-03T01:11:48;1.90;;;1.80;;
74217;SDS011;62579;47.288;18.646;2022-08-03T01:14:23;5.80;;;2.33;;
74217;SDS011;62579;47.288;18.646;2022-08-03T01:16:58;3.50;;;2.20;;
74217;SDS011;62579;47.288;18.646;2022-08-03T01:25:13;3.58;;;2.60;;
74217;SDS011;62579;47.288;18.646;2022-08-03T01:30:20;6.87;;;2.97;;
74217;SDS011;62579;47.288;18.646;2022-08-03T01:33:00;3.40;;;3.10;;
74217;SDS011;62579;47.288;18.646;2022-08-03T01:35:35;6.47;;;4.17;;
74217;SDS011;62579;47.288;18.646;2022-08-03T01:38:21;6.77;;;3.67;;
74217;SDS011;62579;47.288;18.646;2022-08-03T01:40:49;6.57;;;5.40;;
74217;SDS011;62579;47.288;18.646;2022-08-03T01:43:18;6.20;;;2.70;;
74217;SDS011;62579;47.288;18.646;2022-08-03T01:45:47;5.20;;;3.17;;
74217;SDS011;62579;47.288;18.646;2022-08-03T01:48:14;3.40;;;2.87;;
74217;SDS011;62579;47.288;18.646;2022-08-03T01:50:42;7.10;;;4.70;;
74217;SDS011;62579;47.288;18.646;2022-08-03T01:53:20;4.47;;;2.70;;
74217;SDS011;62579;47.288;18.646;2022-08-03T01:55:47;2.87;;;2.67;;
74217;SDS011;62579;47.288;18.646;2022-08-03T01:58:16;4.83;;;3.27;;
74217;SDS011;62579;47.288;18.646;2022-08-03T02:00:45;5.40;;;3.27;;
74217;SDS011;62579;47.288;18.646;2022-08-03T02:03:13;5.77;;;3.83;;
74217;SDS011;62579;47.288;18.646;2022-08-03T02:05:40;6.37;;;3.57;;
74217;SDS011;62579;47.288;18.646;2022-08-03T02:08:09;3.80;;;3.37;;
74217;SDS011;62579;47.288;18.646;2022-08-03T02:10:36;6.20;;;5.30;;
74217;SDS011;62579;47.288;18.646;2022-08-03T02:13:05;3.63;;;3.30;;
74217;SDS011;62579;47.288;18.646;2022-08-03T02:15:32;6.47;;;3.35;;
74217;SDS011;62579;47.288;18.646;2022-08-03T02:20:25;6.37;;;4.12;;
74217;SDS011;62579;47.288;18.646;2022-08-03T02:22:52;5.18;;;4.25;;
74217;SDS011;62579;47.288;18.646;2022-08-03T02:25:18;5.87;;;3.30;;
74217;SDS011;62579;47.288;18.646;2022-08-03T02:27:50;4.33;;;3.63;;
74217;SDS011;62579;47.288;18.646;2022-08-03T02:30:19;6.77;;;3.30;;
74217;SDS011;62579;47.288;18.646;2022-08-03T02:32:50;4.20;;;3.80;;
74217;SDS011;62579;47.288;18.646;2022-08-03T02:50:14;4.17;;;3.57;;
74217;SDS011;62579;47.288;18.646;2022-08-03T02:52:41;4.12;;;3.25;;
74217;SDS011;62579;47.288;18.646;2022-08-03T02:55:09;3.37;;;3.17;;
74217;SDS011;62579;47.288;18.646;2022-08-03T02:57:36;5.70;;;3.27;;
74217;SDS011;62579;47.288;18.646;2022-08-03T03:00:03;3.37;;;3.08;;
74217;SDS011;62579;47.288;18.646;2022-08-03T03:02:29;3.90;;;3.00;;
74217;SDS011;62579;47.288;18.646;2022-08-03T03:04:55;9.10;;;3.13;;
74217;SDS011;62579;47.288;18.646;2022-08-03T03:07:21;3.17;;;2.77;;
74217;SDS011;62579;47.288;18.646;2022-08-03T03:09:47;4.63;;;3.03;;
74217;SDS011;62579;47.288;18.646;2022-08-03T03:12:13;4.10;;;3.23;;
74217;SDS011;62579;47.288;18.646;2022-08-03T03:14:41;4.83;;;3.00;;
74217;SDS011;62579;47.288;18.646;2022-08-03T03:17:06;2.93;;;2.73;;
74217;SDS011;62579;47.288;18.646;2022-08-03T03:41:59;6.30;;;3.20;;
74217;SDS011;62579;47.288;18.646;2022-08-03T03:44:26;4.50;;;3.07;;
74217;SDS011;62579;47.288;18.646;2022-08-03T03:46:52;3.87;;;3.20;;
74217;SDS011;62579;47.288;18.646;2022-08-03T03:49:18;3.90;;;3.20;;
74217;SDS011;62579;47.288;18.646;2022-08-03T03:51:44;5.00;;;3.50;;
74217;SDS011;62579;47.288;18.646;2022-08-03T03:54:09;9.40;;;3.40;;
74217;SDS011;62579;47.288;18.646;2022-08-03T03:56:35;6.57;;;3.63;;
74217;SDS011;62579;47.288;18.646;2022-08-03T03:59:00;5.13;;;3.50;;
74217;SDS011;62579;47.288;18.646;2022-08-03T04:01:25;5.73;;;3.60;;
74217;SDS011;62579;47.288;18.646;2022-08-03T04:03:51;4.70;;;3.60;;
74217;SDS011;62579;47.288;18.646;2022-08-03T04:06:17;3.63;;;3.33;;
74217;SDS011;62579;47.288;18.646;2022-08-03T04:09:02;4.57;;;3.67;;
74217;SDS011;62579;47.288;18.646;2022-08-03T04:11:53;3.67;;;3.30;;
74217;SDS011;62579;47.288;18.646;2022-08-03T04:14:33;4.78;;;3.37;;
74217;SDS011;62579;47.288;18.646;2022-08-03T04:17:01;7.78;;;3.30;;
74217;SDS011;62579;47.288;18.646;2022-08-03T04:21:55;10.03;;;3.70;;
74217;SDS011;62579;47.288;18.646;2022-08-03T04:24:26;6.00;;;3.50;;
74217;SDS011;62579;47.288;18.646;2022-08-03T04:26:57;6.27;;;3.40;;
74217;SDS011;62579;47.288;18.646;2022-08-03T04:29:25;6.83;;;3.90;;
74217;SDS011;62579;47.288;18.646;2022-08-03T04:31:50;3.97;;;3.30;;
74217;SDS011;62579;47.288;18.646;2022-08-03T04:34:19;5.77;;;3.87;;
74217;SDS011;62579;47.288;18.646;2022-08-03T04:36:46;4.10;;;3.70;;
74217;SDS011;62579;47.288;18.646;2022-08-03T04:39:15;5.63;;;3.73;;
74217;SDS011;62579;47.288;18.646;2022-08-03T04:41:44;4.40;;;3.57;;
74217;SDS011;62579;47.288;18.646;2022-08-03T04:44:12;4.83;;;3.47;;
74217;SDS011;62579;47.288;18.646;2022-08-03T04:46:38;4.40;;;3.30;;
74217;SDS011;62579;47.288;18.646;2022-08-03T04:49:05;3.85;;;3.55;;
74217;SDS011;62579;47.288;18.646;2022-08-03T04:51:32;3.62;;;3.20;;
74217;SDS011;62579;47.288;18.646;2022-08-03T04:54:02;4.03;;;3.72;;
74217;SDS011;62579;47.288;18.646;2022-08-03T04:56:28;4.68;;;3.60;;
74217;SDS011;62579;47.288;18.646;2022-08-03T04:58:53;4.05;;;3.33;;
74217;SDS011;62579;47.288;18.646;2022-08-03T05:01:18;4.00;;;3.30;;
74217;SDS011;62579;47.288;18.646;2022-08-03T05:03:45;3.97;;;3.67;;
74217;SDS011;62579;47.288;18.646;2022-08-03T05:06:11;4.30;;;3.90;;
74217;SDS011;62579;47.288;18.646;2022-08-03T05:08:36;6.45;;;3.70;;
74217;SDS011;62579;47.288;18.646;2022-08-03T05:11:02;8.90;;;3.55;;
74217;SDS011;62579;47.288;18.646;2022-08-03T05:13:27;5.53;;;3.75;;
74217;SDS011;62579;47.288;18.646;2022-08-03T05:15:53;5.53;;;3.58;;
74217;SDS011;62579;47.288;18.646;2022-08-03T05:18:18;7.18;;;4.10;;
74217;SDS011;62579;47.288;18.646;2022-08-03T05:20:43;6.68;;;3.67;;
74217;SDS011;62579;47.288;18.646;2022-08-03T05:23:09;6.18;;;3.55;;
74217;SDS011;62579;47.288;18.646;2022-08-03T05:25:34;10.63;;;3.80;;
74217;SDS011;62579;47.288;18.646;2022-08-03T05:27:59;7.47;;;3.75;;
74217;SDS011;62579;47.288;18.646;2022-08-03T05:30:25;6.22;;;4.22;;
74217;SDS011;62579;47.288;18.646;2022-08-03T05:32:50;6.18;;;3.78;;
74217;SDS011;62579;47.288;18.646;2022-08-03T05:35:17;4.00;;;3.70;;
74217;SDS011;62579;47.288;18.646;2022-08-03T05:37:42;8.02;;;3.67;;
74217;SDS011;62579;47.288;18.646;2022-08-03T05:40:08;5.70;;;4.20;;
74217;SDS011;62579;47.288;18.646;2022-08-03T05:42:35;7.85;;;4.50;;
74217;SDS011;62579;47.288;18.646;2022-08-03T05:45:03;6.43;;;3.97;;
74217;SDS011;62579;47.288;18.646;2022-08-03T05:47:37;7.30;;;4.68;;
74217;SDS011;62579;47.288;18.646;2022-08-03T05:50:02;9.95;;;5.12;;
74217;SDS011;62579;47.288;18.646;2022-08-03T05:52:28;6.95;;;4.62;;
74217;SDS011;62579;47.288;18.646;2022-08-03T05:54:53;6.62;;;5.20;;
74217;SDS011;62579;47.288;18.646;2022-08-03T05:57:19;6.85;;;5.22;;
74217;SDS011;62579;47.288;18.646;2022-08-03T05:59:44;9.82;;;5.55;;
74217;SDS011;62579;47.288;18.646;2022-08-03T06:02:09;10.93;;;5.53;;
74217;SDS011;62579;47.288;18.646;2022-08-03T06:04:34;8.93;;;5.30;;
74217;SDS011;62579;47.288;18.646;2022-08-03T06:07:00;5.68;;;5.12;;
74217;SDS011;62579;47.288;18.646;2022-08-03T06:09:25;5.20;;;4.70;;
74217;SDS011;62579;47.288;18.646;2022-08-03T06:11:50;5.68;;;4.72;;
74217;SDS011;62579;47.288;18.646;2022-08-03T06:14:16;7.45;;;4.93;;
74217;SDS011;62579;47.288;18.646;2022-08-03T06:16:41;4.62;;;4.22;;
74217;SDS011;62579;47.288;18.646;2022-08-03T06:19:06;8.60;;;4.97;;
74217;SDS011;62579;47.288;18.646;2022-08-03T06:21:32;6.03;;;4.43;;
74217;SDS011;62579;47.288;18.646;2022-08-03T06:23:57;6.03;;;4.15;;
74217;SDS011;62579;47.288;18.646;2022-08-03T06:26:23;5.80;;;4.30;;
74217;SDS011;62579;47.288;18.646;2022-08-03T06:28:50;8.73;;;5.40;;
74217;SDS011;62579;47.288;18.646;2022-08-03T06:31:16;8.73;;;5.00;;
74217;SDS011;62579;47.288;18.646;2022-08-03T06:33:41;9.68;;;4.85;;
74217;SDS011;62579;47.288;18.646;2022-08-03T06:36:06;8.27;;;5.20;;
74217;SDS011;62579;47.288;18.646;2022-08-03T06:38:31;5.70;;;5.10;;
74217;SDS011;62579;47.288;18.646;2022-08-03T06:40:57;6.62;;;5.07;;
74217;SDS011;62579;47.288;18.646;2022-08-03T06:43:22;7.37;;;5.03;;
74217;SDS011;62579;47.288;18.646;2022-08-03T06:45:47;9.30;;;5.20;;
74217;SDS011;62579;47.288;18.646;2022-08-03T06:48:13;9.53;;;5.13;;
74217;SDS011;62579;47.288;18.646;2022-08-03T06:50:39;6.05;;;5.05;;
74217;SDS011;62579;47.288;18.646;2022-08-03T06:55:31;5.50;;;5.00;;
74217;SDS011;62579;47.288;18.646;2022-08-03T06:57:56;6.32;;;5.12;;
74217;SDS011;62579;47.288;18.646;2022-08-03T07:00:22;9.43;;;5.50;;
74217;SDS011;62579;47.288;18.646;2022-08-03T07:02:48;8.60;;;5.47;;
74217;SDS011;62579;47.288;18.646;2022-08-03T07:05:14;7.40;;;4.80;;
74217;SDS011;62579;47.288;18.646;2022-08-03T07:07:39;6.00;;;5.10;;
74217;SDS011;62579;47.288;18.646;2022-08-03T07:10:05;29.93;;;6.07;;
74217;SDS011;62579;47.288;18.646;2022-08-03T07:12:32;9.52;;;4.70;;
74217;SDS011;62579;47.288;18.646;2022-08-03T07:17:46;5.50;;;4.80;;
74217;SDS011;62579;47.288;18.646;2022-08-03T07:20:11;5.60;;;5.00;;
74217;SDS011;62579;47.288;18.646;2022-08-03T09:48:44;5.95;;;3.70;;
74217;SDS011;62579;47.288;18.646;2022-08-03T09:51:09;7.07;;;4.30;;
74217;SDS011;62579;47.288;18.646;2022-08-03T09:53:45;10.07;;;3.75;;
74217;SDS011;62579;47.288;18.646;2022-08-03T09:56:10;4.50;;;3.80;;
74217;SDS011;62579;47.288;18.646;2022-08-03T09:58:43;4.17;;;3.77;;
74217;SDS011;62579;47.288;18.646;2022-08-03T10:01:11;5.07;;;3.37;;
74217;SDS011;62579;47.288;18.646;2022-08-03T10:03:37;4.10;;;3.80;;
74217;SDS011;62579;47.288;18.646;2022-08-03T10:06:17;4.12;;;3.60;;
74217;SDS011;62579;47.288;18.646;2022-08-03T10:08:44;3.85;;;3.45;;
74217;SDS011;62579;47.288;18.646;2022-08-03T10:11:42;7.07;;;3.70;;
74217;SDS011;62579;47.288;18.646;2022-08-03T10:14:08;3.72;;;3.47;;
74217;SDS011;62579;47.288;18.646;2022-08-03T10:16:42;6.25;;;3.50;;
74217;SDS011;62579;47.288;18.646;2022-08-03T10:19:08;4.17;;;3.80;;
74217;SDS011;62579;47.288;18.646;2022-08-03T10:21:35;5.72;;;3.35;;
74217;SDS011;62579;47.288;18.646;2022-08-03T10:24:03;5.82;;;3.78;;
74217;SDS011;62579;47.288;18.646;2022-08-03T10:26:31;4.00;;;3.70;;
74217;SDS011;62579;47.288;18.646;2022-08-03T10:28:59;4.15;;;3.75;;
74217;SDS011;62579;47.288;18.646;2022-08-03T11:06:19;10.20;;;3.58;;
74217;SDS011;62579;47.288;18.646;2022-08-03T11:08:47;4.55;;;3.22;;
74217;SDS011;62579;47.288;18.646;2022-08-03T11:14:01;3.03;;;2.83;;
74217;SDS011;62579;47.288;18.646;2022-08-03T11:16:42;3.20;;;2.90;;
74217;SDS011;62579;47.288;18.646;2022-08-03T11:19:17;4.30;;;3.05;;
74217;SDS011;62579;47.288;18.646;2022-08-03T11:30:01;4.70;;;2.85;;
74217;SDS011;62579;47.288;18.646;2022-08-03T11:37:33;7.10;;;3.40;;
74217;SDS011;62579;47.288;18.646;2022-08-03T11:39:58;3.97;;;3.30;;
74217;SDS011;62579;47.288;18.646;2022-08-03T11:42:36;7.50;;;3.27;;
74217;SDS011;62579;47.288;18.646;2022-08-03T11:45:02;3.50;;;3.20;;
74217;SDS011;62579;47.288;18.646;2022-08-03T11:47:35;3.28;;;2.97;;
74217;SDS011;62579;47.288;18.646;2022-08-03T11:50:02;8.52;;;2.90;;
74217;SDS011;62579;47.288;18.646;2022-08-03T11:52:34;3.47;;;3.08;;
74217;SDS011;62579;47.288;18.646;2022-08-03T11:55:02;3.17;;;2.97;;
74217;SDS011;62579;47.288;18.646;2022-08-03T11:57:34;4.72;;;2.70;;
74217;SDS011;62579;47.288;18.646;2022-08-03T11:59:59;3.30;;;3.00;;
74217;SDS011;62579;47.288;18.646;2022-08-03T12:02:25;8.67;;;3.03;;
74217;SDS011;62579;47.288;18.646;2022-08-03T12:04:54;3.90;;;2.80;;
74217;SDS011;62579;47.288;18.646;2022-08-03T12:07:22;6.93;;;3.10;;
74217;SDS011;62579;47.288;18.646;2022-08-03T15:33:53;2.35;;;2.15;;
74217;SDS011;62579;47.288;18.646;2022-08-03T15:36:18;2.60;;;2.40;;
74217;SDS011;62579;47.288;18.646;2022-08-03T15:38:44;3.33;;;2.85;;
74217;SDS011;62579;47.288;18.646;2022-08-03T15:43:38;5.03;;;2.30;;
74217;SDS011;62579;47.288;18.646;2022-08-03T15:46:04;7.45;;;2.40;;
74217;SDS011;62579;47.288;18.646;2022-08-03T15:48:30;4.75;;;2.40;;
74217;SDS011;62579;47.288;18.646;2022-08-03T15:50:55;2.27;;;2.17;;
74217;SDS011;62579;47.288;18.646;2022-08-03T15:53:20;4.33;;;2.40;;
74217;SDS011;62579;47.288;18.646;2022-08-03T15:55:46;4.57;;;2.30;;
74217;SDS011;62579;47.288;18.646;2022-08-03T15:58:11;4.70;;;2.43;;
74217;SDS011;62579;47.288;18.646;2022-08-03T16:00:37;2.50;;;2.30;;
74217;SDS011;62579;47.288;18.646;2022-08-03T16:03:03;2.80;;;2.28;;
74217;SDS011;62579;47.288;18.646;2022-08-03T16:05:28;4.70;;;2.20;;
74217;SDS011;62579;47.288;18.646;2022-08-03T16:07:54;21.37;;;3.10;;
74217;SDS011;62579;47.288;18.646;2022-08-03T16:10:20;8.47;;;2.47;;
74217;SDS011;62579;47.288;18.646;2022-08-03T16:12:46;2.25;;;2.15;;
74217;SDS011;62579;47.288;18.646;2022-08-03T16:15:12;4.40;;;2.30;;
74217;SDS011;62579;47.288;18.646;2022-08-03T16:17:38;5.60;;;2.53;;
74217;SDS011;62579;47.288;18.646;2022-08-03T16:22:31;2.92;;;2.22;;
74217;SDS011;62579;47.288;18.646;2022-08-03T16:24:57;2.33;;;2.13;;
74217;SDS011;62579;47.288;18.646;2022-08-03T16:32:14;4.10;;;2.37;;
74217;SDS011;62579;47.288;18.646;2022-08-03T16:34:39;4.90;;;2.45;;
74217;SDS011;62579;47.288;18.646;2022-08-03T16:37:05;2.30;;;2.10;;
74217;SDS011;62579;47.288;18.646;2022-08-03T16:41:57;3.22;;;2.40;;
74217;SDS011;62579;47.288;18.646;2022-08-03T16:44:22;2.28;;;2.17;;
74217;SDS011;62579;47.288;18.646;2022-08-03T16:46:48;5.32;;;2.47;;
74217;SDS011;62579;47.288;18.646;2022-08-03T16:49:14;2.40;;;2.30;;
74217;SDS011;62579;47.288;18.646;2022-08-03T16:51:39;3.30;;;2.40;;
74217;SDS011;62579;47.288;18.646;2022-08-03T16:54:05;4.10;;;2.40;;
74217;SDS011;62579;47.288;18.646;2022-08-03T16:56:31;7.75;;;2.30;;
74217;SDS011;62579;47.288;18.646;2022-08-03T16:58:57;5.43;;;2.47;;
74217;SDS011;62579;47.288;18.646;2022-08-03T17:01:22;5.50;;;2.67;;
74217;SDS011;62579;47.288;18.646;2022-08-03T17:03:49;4.95;;;2.47;;
74217;SDS011;62579;47.288;18.646;2022-08-03T17:06:18;3.28;;;2.50;;
74217;SDS011;62579;47.288;18.646;2022-08-03T17:08:44;2.47;;;2.27;;
74217;SDS011;62579;47.288;18.646;2022-08-03T17:11:09;2.70;;;2.50;;
74217;SDS011;62579;47.288;18.646;2022-08-03T17:13:36;2.78;;;2.37;;
74217;SDS011;62579;47.288;18.646;2022-08-03T17:16:02;2.60;;;2.40;;
74217;SDS011;62579;47.288;18.646;2022-08-03T17:18:33;3.03;;;2.40;;
74217;SDS011;62579;47.288;18.646;2022-08-03T17:21:03;4.70;;;2.50;;
74217;SDS011;62579;47.288;18.646;2022-08-03T17:26:42;4.75;;;2.60;;
74217;SDS011;62579;47.288;18.646;2022-08-03T17:29:11;3.95;;;2.80;;
74217;SDS011;62579;47.288;18.646;2022-08-03T17:31:38;3.35;;;2.33;;
74217;SDS011;62579;47.288;18.646;2022-08-03T18:01:44;21.60;;;2.90;;
74217;SDS011;62579;47.288;18.646;2022-08-03T18:04:37;7.12;;;2.78;;
74217;SDS011;62579;47.288;18.646;2022-08-03T18:07:05;6.43;;;3.33;;
74217;SDS011;62579;47.288;18.646;2022-08-03T18:09:35;13.27;;;3.20;;
74217;SDS011;62579;47.288;18.646;2022-08-03T18:12:05;13.62;;;2.97;;
74217;SDS011;62579;47.288;18.646;2022-08-03T18:14:57;17.98;;;3.97;;
74217;SDS011;62579;47.288;18.646;2022-08-03T18:17:34;15.30;;;4.70;;
74217;SDS011;62579;47.288;18.646;2022-08-03T18:20:04;4.25;;;3.85;;
74217;SDS011;62579;47.288;18.646;2022-08-03T18:22:30;6.72;;;3.78;;
74217;SDS011;62579;47.288;18.646;2022-08-03T18:24:57;12.13;;;3.78;;
74217;SDS011;62579;47.288;18.646;2022-08-03T18:27:23;13.77;;;4.47;;
74217;SDS011;62579;47.288;18.646;2022-08-03T18:29:49;6.33;;;3.27;;
74217;SDS011;62579;47.288;18.646;2022-08-03T18:32:15;4.30;;;2.90;;
74217;SDS011;62579;47.288;18.646;2022-08-03T18:34:41;8.87;;;3.13;;
74217;SDS011;62579;47.288;18.646;2022-08-03T18:37:07;34.45;;;4.35;;
74217;SDS011;62579;47.288;18.646;2022-08-03T18:39:36;4.47;;;2.60;;
74217;SDS011;62579;47.288;18.646;2022-08-03T18:42:05;7.97;;;2.80;;
74217;SDS011;62579;47.288;18.646;2022-08-03T18:44:34;3.22;;;2.72;;
74217;SDS011;62579;47.288;18.646;2022-08-03T18:47:34;6.93;;;3.00;;
74217;SDS011;62579;47.288;18.646;2022-08-03T18:55:28;4.70;;;2.70;;
74217;SDS011;62579;47.288;18.646;2022-08-03T18:58:02;5.10;;;2.62;;
74217;SDS011;62579;47.288;18.646;2022-08-03T19:00:34;5.18;;;2.87;;
74217;SDS011;62579;47.288;18.646;2022-08-03T19:03:02;5.32;;;3.00;;
74217;SDS011;62579;47.288;18.646;2022-08-03T19:05:37;4.00;;;2.70;;
74217;SDS011;62579;47.288;18.646;2022-08-03T19:08:15;3.50;;;2.53;;
74217;SDS011;62579;47.288;18.646;2022-08-03T19:10:54;2.80;;;2.60;;
74217;SDS011;62579;47.288;18.646;2022-08-03T19:13:28;2.85;;;2.30;;
74217;SDS011;62579;47.288;18.646;2022-08-03T19:15:59;4.43;;;2.47;;
74217;SDS011;62579;47.288;18.646;2022-08-03T19:18:27;6.05;;;4.22;;
74217;SDS011;62579;47.288;18.646;2022-08-03T19:20:55;3.87;;;3.17;;
74217;SDS011;62579;47.288;18.646;2022-08-03T19:23:22;2.97;;;2.65;;
74217;SDS011;62579;47.288;18.646;2022-08-03T19:25:49;2.97;;;2.42;;
74217;SDS011;62579;47.288;18.646;2022-08-03T19:28:15;4.60;;;2.28;;
74217;SDS011;62579;47.288;18.646;2022-08-03T19:30:41;4.22;;;2.25;;
74217;SDS011;62579;47.288;18.646;2022-08-03T19:33:08;6.00;;;2.20;;
74217;SDS011;62579;47.288;18.646;2022-08-03T19:35:35;2.33;;;2.10;;
74217;SDS011;62579;47.288;18.646;2022-08-03T19:38:04;2.00;;;1.90;;
74217;SDS011;62579;47.288;18.646;2022-08-03T19:40:30;1.90;;;1.80;;
74217;SDS011;62579;47.288;18.646;2022-08-03T19:42:58;3.17;;;1.90;;
74217;SDS011;62579;47.288;18.646;2022-08-03T19:45:32;3.55;;;1.70;;
74217;SDS011;62579;47.288;18.646;2022-08-03T19:48:11;2.85;;;1.70;;
74217;SDS011;62579;47.288;18.646;2022-08-03T19:50:38;5.53;;;1.70;;
74217;SDS011;62579;47.288;18.646;2022-08-03T19:53:08;1.70;;;1.60;;
74217;SDS011;62579;47.288;18.646;2022-08-03T19:55:36;1.73;;;1.60;;
74217;SDS011;62579;47.288;18.646;2022-08-03T19:58:05;1.50;;;1.40;;
74217;SDS011;62579;47.288;18.646;2022-08-03T20:00:32;2.28;;;1.58;;
74217;SDS011;62579;47.288;18.646;2022-08-03T20:05:38;1.60;;;1.50;;
74217;SDS011;62579;47.288;18.646;2022-08-03T20:08:04;4.03;;;1.63;;
74217;SDS011;62579;47.288;18.646;2022-08-03T20:10:32;3.55;;;1.40;;
74217;SDS011;62579;47.288;18.646;2022-08-03T20:12:59;3.58;;;1.40;;
74217;SDS011;62579;47.288;18.646;2022-08-03T20:15:25;1.40;;;1.30;;
74217;SDS011;62579;47.288;18.646;2022-08-03T20:17:51;2.92;;;1.62;;
74217;SDS011;62579;47.288;18.646;2022-08-03T20:20:25;6.55;;;1.67;;
74217;SDS011;62579;47.288;18.646;2022-08-03T20:22:55;3.17;;;1.40;;
74217;SDS011;62579;47.288;18.646;2022-08-03T20:47:39;1.60;;;1.50;;
74217;SDS011;62579;47.288;18.646;2022-08-03T20:50:06;1.40;;;1.30;;
74217;SDS011;62579;47.288;18.646;2022-08-03T20:52:32;4.05;;;1.50;;
74217;SDS011;62579;47.288;18.646;2022-08-03T20:54:58;1.50;;;1.35;;
74217;SDS011;62579;47.288;18.646;2022-08-03T20:57:23;1.43;;;1.33;;
74217;SDS011;62579;47.288;18.646;2022-08-03T20:59:49;1.73;;;1.30;;
74217;SDS011;62579;47.288;18.646;2022-08-03T21:02:15;2.90;;;1.40;;
74217;SDS011;62579;47.288;18.646;2022-08-03T21:04:40;2.30;;;1.40;;
74217;SDS011;62579;47.288;18.646;2022-08-03T21:07:10;3.60;;;1.62;;
74217;SDS011;62579;47.288;18.646;2022-08-03T21:09:46;3.47;;;1.70;;
74217;SDS011;62579;47.288;18.646;2022-08-03T21:12:17;1.60;;;1.50;;
74217;SDS011;62579;47.288;18.646;2022-08-03T21:14:50;2.62;;;1.30;;
74217;SDS011;62579;47.288;18.646;2022-08-03T21:17:22;1.45;;;1.35;;
74217;SDS011;62579;47.288;18.646;2022-08-03T21:19:50;1.45;;;1.35;;
74217;SDS011;62579;47.288;18.646;2022-08-03T21:22:18;2.30;;;1.40;;
74217;SDS011;62579;47.288;18.646;2022-08-03T21:24:46;1.85;;;1.23;;
74217;SDS011;62579;47.288;18.646;2022-08-03T21:27:12;1.40;;;1.30;;
74217;SDS011;62579;47.288;18.646;2022-08-03T21:29:38;1.33;;;1.23;;
74217;SDS011;62579;47.288;18.646;2022-08-03T21:32:04;1.53;;;1.43;;
74217;SDS011;62579;47.288;18.646;2022-08-03T21:34:31;1.30;;;1.30;;
74217;SDS011;62579;47.288;18.646;2022-08-03T21:36:59;1.30;;;1.20;;
74217;SDS011;62579;47.288;18.646;2022-08-03T21:39:26;1.45;;;1.40;;
74217;SDS011;62579;47.288;18.646;2022-08-03T21:41:51;2.40;;;1.53;;
74217;SDS011;62579;47.288;18.646;2022-08-03T21:44:16;1.58;;;1.37;;
74217;SDS011;62579;47.288;18.646;2022-08-03T21:46:42;4.35;;;1.10;;
74217;SDS011;62579;47.288;18.646;2022-08-03T21:49:08;1.73;;;1.30;;
74217;SDS011;62579;47.288;18.646;2022-08-03T21:51:37;1.60;;;1.50;;
74217;SDS011;62579;47.288;18.646;2022-08-03T21:54:03;1.80;;;1.70;;
74217;SDS011;62579;47.288;18.646;2022-08-03T21:56:50;4.47;;;1.37;;
74217;SDS011;62579;47.288;18.646;2022-08-03T21:59:16;1.48;;;1.33;;
74217;SDS011;62579;47.288;18.646;2022-08-03T22:01:43;3.05;;;1.40;;
74217;SDS011;62579;47.288;18.646;2022-08-03T22:04:10;1.98;;;1.40;;
74217;SDS011;62579;47.288;18.646;2022-08-03T22:06:38;1.30;;;1.20;;
74217;SDS011;62579;47.288;18.646;2022-08-03T22:09:06;1.55;;;1.25;;
74217;SDS011;62579;47.288;18.646;2022-08-03T22:11:33;1.83;;;1.17;;
74217;SDS011;62579;47.288;18.646;2022-08-03T22:14:00;3.90;;;1.40;;
74217;SDS011;62579;47.288;18.646;2022-08-03T22:16:26;1.50;;;1.40;;
74217;SDS011;62579;47.288;18.646;2022-08-03T22:18:51;3.30;;;1.20;;
74217;SDS011;62579;47.288;18.646;2022-08-03T22:21:16;1.58;;;1.35;;
74217;SDS011;62579;47.288;18.646;2022-08-03T22:23:46;2.25;;;1.33;;
74217;SDS011;62579;47.288;18.646;2022-08-03T22:26:19;2.60;;;1.30;;
74217;SDS011;62579;47.288;18.646;2022-08-03T22:28:47;1.77;;;1.40;;
74217;SDS011;62579;47.288;18.646;2022-08-03T22:31:13;1.90;;;1.30;;
74217;SDS011;62579;47.288;18.646;2022-08-03T22:33:39;3.77;;;1.40;;
74217;SDS011;62579;47.288;18.646;2022-08-03T22:36:05;1.42;;;1.27;;
74217;SDS011;62579;47.288;18.646;2022-08-03T22:38:31;3.00;;;1.30;;
74217;SDS011;62579;47.288;18.646;2022-08-03T22:40:57;1.10;;;1.10;;
74217;SDS011;62579;47.288;18.646;2022-08-03T22:43:23;2.87;;;1.40;;
74217;SDS011;62579;47.288;18.646;2022-08-03T22:45:49;3.00;;;1.67;;
74217;SDS011;62579;47.288;18.646;2022-08-03T22:50:42;1.50;;;1.40;;
74217;SDS011;62579;47.288;18.646;2022-08-03T22:53:08;1.60;;;1.37;;
74217;SDS011;62579;47.288;18.646;2022-08-03T22:55:39;2.45;;;1.62;;
74217;SDS011;62579;47.288;18.646;2022-08-03T22:58:04;6.72;;;1.65;;
74217;SDS011;62579;47.288;18.646;2022-08-03T23:00:30;3.25;;;1.60;;
74217;SDS011;62579;47.288;18.646;2022-08-03T23:02:55;1.95;;;1.60;;
74217;SDS011;62579;47.288;18.646;2022-08-03T23:05:25;3.15;;;1.30;;
74217;SDS011;62579;47.288;18.646;2022-08-03T23:07:52;1.37;;;1.27;;
74217;SDS011;62579;47.288;18.646;2022-08-03T23:10:19;2.45;;;1.40;;
74217;SDS011;62579;47.288;18.646;2022-08-03T23:12:47;2.28;;;1.40;;
74217;SDS011;62579;47.288;18.646;2022-08-03T23:15:13;3.92;;;1.58;;
74217;SDS011;62579;47.288;18.646;2022-08-03T23:17:51;2.35;;;1.40;;
74217;SDS011;62579;47.288;18.646;2022-08-03T23:20:21;3.28;;;1.40;;
74217;SDS011;62579;47.288;18.646;2022-08-03T23:25:14;1.47;;;1.37;;
74217;SDS011;62579;47.288;18.646;2022-08-03T23:27:40;2.03;;;1.50;;
74217;SDS011;62579;47.288;18.646;2022-08-03T23:30:07;2.50;;;1.35;;
74217;SDS011;62579;47.288;18.646;2022-08-03T23:32:34;1.55;;;1.45;;